sensor_id;sensor_type;location;lat;lon;timestamp;pressure;altitude;pressure_sealevel;temperature;humidity
45541;BME280;31265;49.680;8.608;2024-02-21T00:02:31;101590.09;;;7.03;100.00
45541;BME280;31265;49.680;8.608;2024-02-21T00:05:00;101583.06;;;7.02;100.00
45541;BME280;31265;49.680;8.608;2024-02-21T00:07:30;101577.53;;;7.02;100.00
45541;BME280;31265;49.680;8.608;2024-02-21T00:09:58;101577.28;;;7.05;100.00
45541;BME280;31265;49.680;8.608;2024-02-21T00:12:27;101560.97;;;7.07;100.00
45541;BME280;31265;49.680;8.608;2024-02-21T00:14:56;101562.50;;;7.03;100.00
45541;BME280;31265;49.680;8.608;2024-02-21T00:17:24;101566.50;;;7.02;100.00
45541;BME280;31265;49.680;8.608;2024-02-21T00:19:54;101566.00;;;7.03;100.00
45541;BME280;31265;49.680;8.608;2024-02-21T00:22:23;101564.50;;;7.08;100.00
45541;BME280;31265;49.680;8.608;2024-02-21T00:24:52;101559.97;;;7.10;100.00
45541;BME280;31265;49.680;8.608;2024-02-21T00:27:20;101563.75;;;7.07;100.00
45541;BME280;31265;49.680;8.608;2024-02-21T00:29:49;101567.50;;;7.10;100.00
45541;BME280;31265;49.680;8.608;2024-02-21T00:32:17;101560.69;;;7.11;100.00
45541;BME280;31265;49.680;8.608;2024-02-21T00:34:46;101546.69;;;7.03;100.00
45541;BME280;31265;49.680;8.608;2024-02-21T00:37:16;101541.19;;;6.98;100.00
45541;BME280;31265;49.680;8.608;2024-02-21T00:39:45;101539.72;;;6.91;100.00
45541;BME280;31265;49.680;8.608;2024-02-21T00:42:14;101535.97;;;6.88;100.00
45541;BME280;31265;49.680;8.608;2024-02-21T00:44:43;101530.22;;;6.81;100.00
45541;BME280;31265;49.680;8.608;2024-02-21T00:47:12;101536.47;;;6.81;100.00
45541;BME280;31265;49.680;8.608;2024-02-21T00:49:42;101533.22;;;6.77;100.00
45541;BME280;31265;49.680;8.608;2024-02-21T00:52:11;101519.69;;;6.74;100.00
45541;BME280;31265;49.680;8.608;2024-02-21T00:54:40;101509.91;;;6.78;100.00
45541;BME280;31265;49.680;8.608;2024-02-21T00:57:20;101498.13;;;6.72;100.00
45541;BME280;31265;49.680;8.608;2024-02-21T00:59:49;101483.56;;;6.77;100.00
45541;BME280;31265;49.680;8.608;2024-02-21T01:02:17;101485.84;;;6.73;100.00
45541;BME280;31265;49.680;8.608;2024-02-21T01:04:46;101487.38;;;6.68;100.00
45541;BME280;31265;49.680;8.608;2024-02-21T01:07:14;101479.09;;;6.68;100.00
45541;BME280;31265;49.680;8.608;2024-02-21T01:09:44;101469.84;;;6.66;100.00
45541;BME280;31265;49.680;8.608;2024-02-21T01:12:13;101465.34;;;6.63;100.00
45541;BME280;31265;49.680;8.608;2024-02-21T01:14:44;101471.84;;;6.60;100.00
45541;BME280;31265;49.680;8.608;2024-02-21T01:17:13;101462.31;;;6.61;100.00
45541;BME280;31265;49.680;8.608;2024-02-21T01:19:41;101457.53;;;6.73;100.00
45541;BME280;31265;49.680;8.608;2024-02-21T01:22:10;101460.53;;;6.69;100.00
45541;BME280;31265;49.680;8.608;2024-02-21T01:24:38;101471.31;;;6.67;100.00
45541;BME280;31265;49.680;8.608;2024-02-21T01:27:08;101467.81;;;6.66;100.00
45541;BME280;31265;49.680;8.608;2024-02-21T01:29:36;101460.31;;;6.61;100.00
45541;BME280;31265;49.680;8.608;2024-02-21T01:32:07;101456.56;;;6.59;100.00
45541;BME280;31265;49.680;8.608;2024-02-21T01:34:37;101450.56;;;6.60;100.00
45541;BME280;31265;49.680;8.608;2024-02-21T01:37:06;101466.09;;;6.63;100.00
45541;BME280;31265;49.680;8.608;2024-02-21T01:39:35;101466.31;;;6.60;100.00
45541;BME280;31265;49.680;8.608;2024-02-21T01:42:03;101475.06;;;6.70;100.00
45541;BME280;31265;49.680;8.608;2024-02-21T01:44:34;101469.09;;;6.65;100.00
45541;BME280;31265;49.680;8.608;2024-02-21T01:47:03;101463.56;;;6.65;100.00
45541;BME280;31265;49.680;8.608;2024-02-21T01:49:32;101471.06;;;6.71;100.00
45541;BME280;31265;49.680;8.608;2024-02-21T01:52:00;101458.28;;;6.67;100.00
45541;BME280;31265;49.680;8.608;2024-02-21T01:54:31;101458.31;;;6.62;100.00
45541;BME280;31265;49.680;8.608;2024-02-21T01:56:59;101460.78;;;6.71;100.00
45541;BME280;31265;49.680;8.608;2024-02-21T01:59:28;101456.28;;;6.68;100.00
45541;BME280;31265;49.680;8.608;2024-02-21T02:01:58;101453.00;;;6.75;100.00
45541;BME280;31265;49.680;8.608;2024-02-21T02:04:28;101457.47;;;6.84;100.00
45541;BME280;31265;49.680;8.608;2024-02-21T02:06:59;101464.75;;;6.81;100.00
45541;BME280;31265;49.680;8.608;2024-02-21T02:09:30;101465.25;;;6.85;100.00
45541;BME280;31265;49.680;8.608;2024-02-21T02:11:59;101454.47;;;6.82;100.00
45541;BME280;31265;49.680;8.608;2024-02-21T02:14:28;101447.94;;;6.85;100.00
45541;BME280;31265;49.680;8.608;2024-02-21T02:16:58;101442.69;;;6.81;100.00
45541;BME280;31265;49.680;8.608;2024-02-21T02:19:26;101435.44;;;6.78;100.00
45541;BME280;31265;49.680;8.608;2024-02-21T02:21:59;101431.41;;;6.79;100.00
45541;BME280;31265;49.680;8.608;2024-02-21T02:24:31;101419.91;;;6.75;100.00
45541;BME280;31265;49.680;8.608;2024-02-21T02:27:00;101414.16;;;6.67;100.00
45541;BME280;31265;49.680;8.608;2024-02-21T02:29:28;101416.41;;;6.69;100.00
45541;BME280;31265;49.680;8.608;2024-02-21T02:32:00;101411.38;;;6.67;100.00
45541;BME280;31265;49.680;8.608;2024-02-21T02:34:28;101397.38;;;6.65;100.00
45541;BME280;31265;49.680;8.608;2024-02-21T02:36:57;101393.63;;;6.63;100.00
45541;BME280;31265;49.680;8.608;2024-02-21T02:39:26;101384.09;;;6.64;100.00
45541;BME280;31265;49.680;8.608;2024-02-21T02:41:56;101382.84;;;6.59;100.00
45541;BME280;31265;49.680;8.608;2024-02-21T02:44:24;101378.84;;;6.55;100.00
45541;BME280;31265;49.680;8.608;2024-02-21T02:46:53;101393.66;;;6.52;100.00
45541;BME280;31265;49.680;8.608;2024-02-21T02:49:22;101394.94;;;6.51;100.00
45541;BME280;31265;49.680;8.608;2024-02-21T02:51:50;101394.69;;;6.49;100.00
45541;BME280;31265;49.680;8.608;2024-02-21T02:54:19;101392.44;;;6.47;100.00
45541;BME280;31265;49.680;8.608;2024-02-21T02:56:47;101384.38;;;6.55;100.00
45541;BME280;31265;49.680;8.608;2024-02-21T02:59:17;101381.63;;;6.55;100.00
45541;BME280;31265;49.680;8.608;2024-02-21T03:01:45;101387.63;;;6.59;100.00
45541;BME280;31265;49.680;8.608;2024-02-21T03:04:14;101397.63;;;6.62;100.00
45541;BME280;31265;49.680;8.608;2024-02-21T03:06:42;101388.56;;;6.67;100.00
45541;BME280;31265;49.680;8.608;2024-02-21T03:09:11;101390.34;;;6.70;100.00
45541;BME280;31265;49.680;8.608;2024-02-21T03:11:39;101373.25;;;6.72;100.00
45541;BME280;31265;49.680;8.608;2024-02-21T03:14:10;101373.03;;;6.70;100.00
45541;BME280;31265;49.680;8.608;2024-02-21T03:16:40;101372.28;;;6.69;100.00
45541;BME280;31265;49.680;8.608;2024-02-21T03:19:08;101368.78;;;6.68;100.00
45541;BME280;31265;49.680;8.608;2024-02-21T03:21:36;101362.75;;;6.70;100.00
45541;BME280;31265;49.680;8.608;2024-02-21T03:24:06;101354.47;;;6.70;100.00
45541;BME280;31265;49.680;8.608;2024-02-21T03:26:35;101350.22;;;6.69;100.00
45541;BME280;31265;49.680;8.608;2024-02-21T03:29:03;101353.22;;;6.71;100.00
45541;BME280;31265;49.680;8.608;2024-02-21T03:31:32;101348.69;;;6.74;100.00
45541;BME280;31265;49.680;8.608;2024-02-21T03:34:02;101343.16;;;6.74;100.00
45541;BME280;31265;49.680;8.608;2024-02-21T03:36:30;101345.09;;;6.84;100.00
45541;BME280;31265;49.680;8.608;2024-02-21T03:38:59;101348.13;;;6.81;100.00
45541;BME280;31265;49.680;8.608;2024-02-21T03:41:28;101342.34;;;6.84;100.00
45541;BME280;31265;49.680;8.608;2024-02-21T03:43:57;101341.88;;;6.80;100.00
45541;BME280;31265;49.680;8.608;2024-02-21T03:46:26;101341.91;;;6.75;100.00
45541;BME280;31265;49.680;8.608;2024-02-21T03:48:55;101340.13;;;6.77;100.00
45541;BME280;31265;49.680;8.608;2024-02-21T03:51:25;101343.91;;;6.74;100.00
45541;BME280;31265;49.680;8.608;2024-02-21T03:53:54;101338.91;;;6.73;100.00
45541;BME280;31265;49.680;8.608;2024-02-21T03:56:22;101340.91;;;6.72;100.00
45541;BME280;31265;49.680;8.608;2024-02-21T03:58:51;101346.41;;;6.72;100.00
45541;BME280;31265;49.680;8.608;2024-02-21T04:01:19;101355.16;;;6.82;100.00
45541;BME280;31265;49.680;8.608;2024-02-21T04:03:49;101358.94;;;6.79;100.00
45541;BME280;31265;49.680;8.608;2024-02-21T04:06:18;101360.19;;;6.78;100.00
45541;BME280;31265;49.680;8.608;2024-02-21T04:08:49;101356.91;;;6.79;100.00
45541;BME280;31265;49.680;8.608;2024-02-21T04:11:17;101354.88;;;6.85;100.00
45541;BME280;31265;49.680;8.608;2024-02-21T04:13:45;101358.19;;;6.78;100.00
45541;BME280;31265;49.680;8.608;2024-02-21T04:16:15;101342.13;;;6.77;100.00
45541;BME280;31265;49.680;8.608;2024-02-21T04:18:44;101346.88;;;6.82;100.00
45541;BME280;31265;49.680;8.608;2024-02-21T04:21:14;101341.88;;;6.80;100.00
45541;BME280;31265;49.680;8.608;2024-02-21T04:23:43;101342.88;;;6.83;100.00
45541;BME280;31265;49.680;8.608;2024-02-21T04:26:13;101336.38;;;6.80;100.00
45541;BME280;31265;49.680;8.608;2024-02-21T04:28:42;101330.06;;;6.80;100.00
45541;BME280;31265;49.680;8.608;2024-02-21T04:31:12;101323.56;;;6.77;100.00
45541;BME280;31265;49.680;8.608;2024-02-21T04:33:42;101304.06;;;6.75;100.00
45541;BME280;31265;49.680;8.608;2024-02-21T04:36:10;101313.31;;;6.78;100.00
45541;BME280;31265;49.680;8.608;2024-02-21T04:38:39;101312.09;;;6.73;100.00
45541;BME280;31265;49.680;8.608;2024-02-21T04:41:08;101305.28;;;6.74;100.00
45541;BME280;31265;49.680;8.608;2024-02-21T04:43:38;101306.03;;;6.80;100.00
45541;BME280;31265;49.680;8.608;2024-02-21T04:46:07;101309.53;;;6.81;100.00
45541;BME280;31265;49.680;8.608;2024-02-21T04:48:36;101292.47;;;6.77;100.00
45541;BME280;31265;49.680;8.608;2024-02-21T04:51:07;101288.50;;;6.72;100.00
45541;BME280;31265;49.680;8.608;2024-02-21T04:53:36;101293.56;;;6.68;100.00
45541;BME280;31265;49.680;8.608;2024-02-21T04:56:05;101294.00;;;6.72;100.00
45541;BME280;31265;49.680;8.608;2024-02-21T04:58:38;101278.25;;;6.67;100.00
45541;BME280;31265;49.680;8.608;2024-02-21T05:01:07;101268.25;;;6.64;100.00
45541;BME280;31265;49.680;8.608;2024-02-21T05:03:38;101260.03;;;6.58;100.00
45541;BME280;31265;49.680;8.608;2024-02-21T05:06:09;101264.03;;;6.57;100.00
45541;BME280;31265;49.680;8.608;2024-02-21T05:08:40;101258.31;;;6.55;100.00
45541;BME280;31265;49.680;8.608;2024-02-21T05:11:08;101261.56;;;6.54;100.00
45541;BME280;31265;49.680;8.608;2024-02-21T05:13:38;101261.06;;;6.55;100.00
45541;BME280;31265;49.680;8.608;2024-02-21T05:16:07;101265.81;;;6.55;100.00
45541;BME280;31265;49.680;8.608;2024-02-21T05:18:36;101264.81;;;6.58;100.00
45541;BME280;31265;49.680;8.608;2024-02-21T05:21:04;101259.28;;;6.58;100.00
45541;BME280;31265;49.680;8.608;2024-02-21T05:23:33;101256.28;;;6.56;100.00
45541;BME280;31265;49.680;8.608;2024-02-21T05:26:01;101248.75;;;6.56;100.00
45541;BME280;31265;49.680;8.608;2024-02-21T05:28:30;101252.28;;;6.51;100.00
45541;BME280;31265;49.680;8.608;2024-02-21T05:30:59;101255.84;;;6.46;100.00
45541;BME280;31265;49.680;8.608;2024-02-21T05:33:28;101250.09;;;6.44;100.00
45541;BME280;31265;49.680;8.608;2024-02-21T05:35:57;101259.09;;;6.44;100.00
45541;BME280;31265;49.680;8.608;2024-02-21T05:38:25;101259.34;;;6.46;100.00
45541;BME280;31265;49.680;8.608;2024-02-21T05:40:53;101262.34;;;6.49;100.00
45541;BME280;31265;49.680;8.608;2024-02-21T05:43:23;101262.81;;;6.53;100.00
45541;BME280;31265;49.680;8.608;2024-02-21T05:45:52;101261.81;;;6.56;100.00
45541;BME280;31265;49.680;8.608;2024-02-21T05:48:23;101261.81;;;6.56;100.00
45541;BME280;31265;49.680;8.608;2024-02-21T05:50:52;101251.03;;;6.52;100.00
45541;BME280;31265;49.680;8.608;2024-02-21T05:53:20;101246.59;;;6.43;100.00
45541;BME280;31265;49.680;8.608;2024-02-21T05:55:48;101232.50;;;6.47;100.00
45541;BME280;31265;49.680;8.608;2024-02-21T05:58:17;101228.06;;;6.38;100.00
45541;BME280;31265;49.680;8.608;2024-02-21T06:00:48;101227.88;;;6.31;100.00
45541;BME280;31265;49.680;8.608;2024-02-21T06:03:16;101218.88;;;6.24;100.00
45541;BME280;31265;49.680;8.608;2024-02-21T06:05:46;101222.16;;;6.17;100.00
45541;BME280;31265;49.680;8.608;2024-02-21T06:08:14;101219.94;;;6.16;100.00
45541;BME280;31265;49.680;8.608;2024-02-21T06:10:43;101215.44;;;6.13;100.00
45541;BME280;31265;49.680;8.608;2024-02-21T06:13:12;101231.75;;;6.05;100.00
45541;BME280;31265;49.680;8.608;2024-02-21T06:15:40;101227.72;;;6.12;100.00
45541;BME280;31265;49.680;8.608;2024-02-21T06:18:09;101230.19;;;6.15;100.00
45541;BME280;31265;49.680;8.608;2024-02-21T06:20:37;101238.00;;;6.11;100.00
45541;BME280;31265;49.680;8.608;2024-02-21T06:23:09;101239.44;;;6.18;100.00
45541;BME280;31265;49.680;8.608;2024-02-21T06:25:37;101227.44;;;6.15;100.00
45541;BME280;31265;49.680;8.608;2024-02-21T06:28:05;101238.16;;;6.24;100.00
45541;BME280;31265;49.680;8.608;2024-02-21T06:30:33;101233.16;;;6.23;100.00
45541;BME280;31265;49.680;8.608;2024-02-21T06:33:02;101226.41;;;6.24;100.00
45541;BME280;31265;49.680;8.608;2024-02-21T06:35:31;101219.63;;;6.25;100.00
45541;BME280;31265;49.680;8.608;2024-02-21T06:38:00;101224.88;;;6.23;100.00
45541;BME280;31265;49.680;8.608;2024-02-21T06:40:31;101226.88;;;6.28;100.00
45541;BME280;31265;49.680;8.608;2024-02-21T06:43:05;101213.13;;;6.22;100.00
45541;BME280;31265;49.680;8.608;2024-02-21T06:45:34;101211.38;;;6.19;100.00
45541;BME280;31265;49.680;8.608;2024-02-21T06:48:03;101197.31;;;6.23;100.00
45541;BME280;31265;49.680;8.608;2024-02-21T06:50:32;101196.91;;;6.13;100.00
45541;BME280;31265;49.680;8.608;2024-02-21T06:53:01;101200.41;;;6.14;100.00
45541;BME280;31265;49.680;8.608;2024-02-21T06:55:31;101202.91;;;6.12;100.00
45541;BME280;31265;49.680;8.608;2024-02-21T06:58:01;101210.94;;;6.10;100.00
45541;BME280;31265;49.680;8.608;2024-02-21T07:00:29;101220.22;;;6.07;100.00
45541;BME280;31265;49.680;8.608;2024-02-21T07:02:58;101212.75;;;6.01;100.00
45541;BME280;31265;49.680;8.608;2024-02-21T07:05:26;101212.72;;;6.07;100.00
45541;BME280;31265;49.680;8.608;2024-02-21T07:07:55;101209.22;;;6.07;100.00
45541;BME280;31265;49.680;8.608;2024-02-21T07:10:23;101223.94;;;6.15;100.00
45541;BME280;31265;49.680;8.608;2024-02-21T07:12:53;101224.34;;;6.30;100.00
45541;BME280;31265;49.680;8.608;2024-02-21T07:15:22;101216.31;;;6.32;100.00
45541;BME280;31265;49.680;8.608;2024-02-21T07:17:53;101211.53;;;6.38;100.00
45541;BME280;31265;49.680;8.608;2024-02-21T07:20:22;101206.81;;;6.33;100.00
45541;BME280;31265;49.680;8.608;2024-02-21T07:22:51;101209.53;;;6.39;100.00
45541;BME280;31265;49.680;8.608;2024-02-21T07:25:20;101201.19;;;6.44;100.00
45541;BME280;31265;49.680;8.608;2024-02-21T07:27:50;101203.16;;;6.50;100.00
45541;BME280;31265;49.680;8.608;2024-02-21T07:30:19;101200.84;;;6.59;100.00
45541;BME280;31265;49.680;8.608;2024-02-21T07:32:49;101191.97;;;6.72;100.00
45541;BME280;31265;49.680;8.608;2024-02-21T07:35:18;101196.50;;;6.70;100.00
45541;BME280;31265;49.680;8.608;2024-02-21T07:37:47;101191.88;;;6.83;100.00
45541;BME280;31265;49.680;8.608;2024-02-21T07:40:16;101198.88;;;6.84;100.00
45541;BME280;31265;49.680;8.608;2024-02-21T07:42:48;101200.69;;;7.06;100.00
45541;BME280;31265;49.680;8.608;2024-02-21T07:45:19;101210.31;;;7.00;100.00
45541;BME280;31265;49.680;8.608;2024-02-21T07:47:51;101205.94;;;7.10;100.00
45541;BME280;31265;49.680;8.608;2024-02-21T07:50:19;101206.84;;;7.18;100.00
45541;BME280;31265;49.680;8.608;2024-02-21T07:52:48;101198.66;;;7.37;100.00
45541;BME280;31265;49.680;8.608;2024-02-21T07:55:16;101191.19;;;7.51;100.00
45541;BME280;31265;49.680;8.608;2024-02-21T07:57:45;101199.38;;;7.38;100.00
45541;BME280;31265;49.680;8.608;2024-02-21T08:00:14;101193.97;;;7.26;100.00
45541;BME280;31265;49.680;8.608;2024-02-21T08:02:49;101191.34;;;7.40;100.00
45541;BME280;31265;49.680;8.608;2024-02-21T08:05:18;101185.50;;;7.43;100.00
45541;BME280;31265;49.680;8.608;2024-02-21T08:07:48;101181.03;;;7.40;100.00
45541;BME280;31265;49.680;8.608;2024-02-21T08:10:16;101181.06;;;7.59;100.00
45541;BME280;31265;49.680;8.608;2024-02-21T08:12:45;101169.91;;;7.46;100.00
45541;BME280;31265;49.680;8.608;2024-02-21T08:15:14;101164.31;;;7.32;100.00
45541;BME280;31265;49.680;8.608;2024-02-21T08:17:42;101165.50;;;7.37;100.00
45541;BME280;31265;49.680;8.608;2024-02-21T08:20:13;101174.84;;;7.53;100.00
45541;BME280;31265;49.680;8.608;2024-02-21T08:22:42;101165.91;;;7.47;100.00
45541;BME280;31265;49.680;8.608;2024-02-21T08:25:11;101166.06;;;7.54;100.00
45541;BME280;31265;49.680;8.608;2024-02-21T08:27:40;101153.72;;;7.56;100.00
45541;BME280;31265;49.680;8.608;2024-02-21T08:30:10;101151.66;;;7.62;100.00
45541;BME280;31265;49.680;8.608;2024-02-21T08:32:39;101153.44;;;7.78;100.00
45541;BME280;31265;49.680;8.608;2024-02-21T08:35:08;101152.56;;;7.70;100.00
45541;BME280;31265;49.680;8.608;2024-02-21T08:37:39;101142.31;;;7.84;100.00
45541;BME280;31265;49.680;8.608;2024-02-21T08:40:08;101140.00;;;7.88;100.00
45541;BME280;31265;49.680;8.608;2024-02-21T08:42:39;101127.16;;;7.71;100.00
45541;BME280;31265;49.680;8.608;2024-02-21T08:45:09;101129.72;;;7.69;100.00
45541;BME280;31265;49.680;8.608;2024-02-21T08:47:39;101132.09;;;7.79;100.00
45541;BME280;31265;49.680;8.608;2024-02-21T08:50:11;101132.53;;;7.83;100.00
45541;BME280;31265;49.680;8.608;2024-02-21T08:52:55;101137.69;;;7.92;100.00
45541;BME280;31265;49.680;8.608;2024-02-21T08:55:24;101130.13;;;8.11;100.00
45541;BME280;31265;49.680;8.608;2024-02-21T08:57:52;101124.31;;;7.96;100.00
45541;BME280;31265;49.680;8.608;2024-02-21T09:00:21;101127.88;;;8.10;100.00
45541;BME280;31265;49.680;8.608;2024-02-21T09:02:55;101130.50;;;8.02;100.00
45541;BME280;31265;49.680;8.608;2024-02-21T09:05:24;101115.03;;;8.12;100.00
45541;BME280;31265;49.680;8.608;2024-02-21T09:07:54;101120.56;;;8.12;100.00
45541;BME280;31265;49.680;8.608;2024-02-21T09:10:23;101112.00;;;8.29;100.00
45541;BME280;31265;49.680;8.608;2024-02-21T09:12:51;101110.31;;;8.58;100.00
45541;BME280;31265;49.680;8.608;2024-02-21T09:15:20;101108.41;;;8.80;100.00
45541;BME280;31265;49.680;8.608;2024-02-21T09:17:48;101105.84;;;8.82;100.00
45541;BME280;31265;49.680;8.608;2024-02-21T09:20:17;101092.44;;;8.99;100.00
45541;BME280;31265;49.680;8.608;2024-02-21T09:22:45;101097.44;;;9.14;100.00
45541;BME280;31265;49.680;8.608;2024-02-21T09:25:15;101097.22;;;9.25;100.00
45541;BME280;31265;49.680;8.608;2024-02-21T09:27:44;101089.69;;;9.13;100.00
45541;BME280;31265;49.680;8.608;2024-02-21T09:30:13;101090.41;;;9.00;100.00
45541;BME280;31265;49.680;8.608;2024-02-21T09:32:42;101088.41;;;9.00;100.00
45541;BME280;31265;49.680;8.608;2024-02-21T09:35:11;101081.56;;;9.15;100.00
45541;BME280;31265;49.680;8.608;2024-02-21T09:37:40;101076.84;;;9.36;100.00
45541;BME280;31265;49.680;8.608;2024-02-21T09:40:09;101077.94;;;9.33;100.00
45541;BME280;31265;49.680;8.608;2024-02-21T09:42:40;101074.63;;;9.35;100.00
45541;BME280;31265;49.680;8.608;2024-02-21T09:45:24;101078.25;;;9.43;100.00
45541;BME280;31265;49.680;8.608;2024-02-21T09:48:04;101078.06;;;9.28;100.00
45541;BME280;31265;49.680;8.608;2024-02-21T09:50:38;101077.88;;;9.60;100.00
45541;BME280;31265;49.680;8.608;2024-02-21T09:53:09;101064.97;;;9.62;100.00
45541;BME280;31265;49.680;8.608;2024-02-21T09:55:40;101075.50;;;9.64;100.00
45541;BME280;31265;49.680;8.608;2024-02-21T09:58:10;101067.41;;;9.66;100.00
45541;BME280;31265;49.680;8.608;2024-02-21T10:00:39;101064.41;;;9.64;100.00
45541;BME280;31265;49.680;8.608;2024-02-21T10:03:08;101067.97;;;9.85;100.00
45541;BME280;31265;49.680;8.608;2024-02-21T10:05:37;101070.00;;;9.85;100.00
45541;BME280;31265;49.680;8.608;2024-02-21T10:08:06;101060.00;;;9.82;100.00
45541;BME280;31265;49.680;8.608;2024-02-21T10:10:42;101063.06;;;9.92;100.00
45541;BME280;31265;49.680;8.608;2024-02-21T10:13:23;101061.84;;;10.21;100.00
45541;BME280;31265;49.680;8.608;2024-02-21T10:16:03;101048.09;;;10.16;100.00
45541;BME280;31265;49.680;8.608;2024-02-21T10:18:32;101046.50;;;9.99;100.00
45541;BME280;31265;49.680;8.608;2024-02-21T10:21:03;101047.97;;;10.21;100.00
45541;BME280;31265;49.680;8.608;2024-02-21T10:23:44;101032.91;;;10.09;100.00
45541;BME280;31265;49.680;8.608;2024-02-21T10:26:14;101033.47;;;10.57;100.00
45541;BME280;31265;49.680;8.608;2024-02-21T10:28:44;101027.84;;;10.49;100.00
45541;BME280;31265;49.680;8.608;2024-02-21T10:31:23;101022.34;;;10.57;100.00
45541;BME280;31265;49.680;8.608;2024-02-21T10:33:56;101025.34;;;10.59;100.00
45541;BME280;31265;49.680;8.608;2024-02-21T10:36:32;101017.09;;;10.46;100.00
45541;BME280;31265;49.680;8.608;2024-02-21T10:39:01;101010.34;;;10.62;100.00
45541;BME280;31265;49.680;8.608;2024-02-21T10:41:34;101012.31;;;10.46;100.00
45541;BME280;31265;49.680;8.608;2024-02-21T10:44:06;101010.56;;;10.64;100.00
45541;BME280;31265;49.680;8.608;2024-02-21T10:46:37;101003.53;;;10.63;100.00
45541;BME280;31265;49.680;8.608;2024-02-21T10:49:06;100989.09;;;10.65;100.00
45541;BME280;31265;49.680;8.608;2024-02-21T10:51:39;100997.13;;;10.76;100.00
45541;BME280;31265;49.680;8.608;2024-02-21T10:54:13;100993.25;;;10.50;100.00
45541;BME280;31265;49.680;8.608;2024-02-21T10:56:47;100978.03;;;10.72;100.00
45541;BME280;31265;49.680;8.608;2024-02-21T10:59:20;100986.91;;;10.71;100.00
45541;BME280;31265;49.680;8.608;2024-02-21T11:01:48;100980.44;;;10.68;100.00
45541;BME280;31265;49.680;8.608;2024-02-21T11:04:16;100970.75;;;10.98;100.00
45541;BME280;31265;49.680;8.608;2024-02-21T11:06:45;100963.72;;;11.05;100.00
45541;BME280;31265;49.680;8.608;2024-02-21T11:09:15;100963.00;;;11.04;100.00
45541;BME280;31265;49.680;8.608;2024-02-21T11:11:44;100954.19;;;11.36;100.00
45541;BME280;31265;49.680;8.608;2024-02-21T11:14:17;100952.88;;;11.30;100.00
45541;BME280;31265;49.680;8.608;2024-02-21T11:16:47;100949.84;;;11.12;100.00
45541;BME280;31265;49.680;8.608;2024-02-21T11:19:19;100949.94;;;11.51;100.00
45541;BME280;31265;49.680;8.608;2024-02-21T11:21:50;100943.09;;;11.52;100.00
45541;BME280;31265;49.680;8.608;2024-02-21T11:24:25;100940.50;;;11.46;100.00
45541;BME280;31265;49.680;8.608;2024-02-21T11:26:55;100936.41;;;11.47;100.00
45541;BME280;31265;49.680;8.608;2024-02-21T11:29:23;100929.38;;;11.31;100.00
45541;BME280;31265;49.680;8.608;2024-02-21T11:31:53;100929.16;;;11.13;100.00
45541;BME280;31265;49.680;8.608;2024-02-21T11:34:22;100916.91;;;11.16;100.00
45541;BME280;31265;49.680;8.608;2024-02-21T11:36:52;100905.28;;;11.33;100.00
45541;BME280;31265;49.680;8.608;2024-02-21T11:39:20;100906.22;;;11.36;100.00
45541;BME280;31265;49.680;8.608;2024-02-21T11:42:00;100901.56;;;11.15;100.00
45541;BME280;31265;49.680;8.608;2024-02-21T11:44:30;100901.22;;;11.80;100.00
45541;BME280;31265;49.680;8.608;2024-02-21T11:47:00;100886.03;;;11.51;100.00
45541;BME280;31265;49.680;8.608;2024-02-21T11:49:28;100881.56;;;11.25;100.00
45541;BME280;31265;49.680;8.608;2024-02-21T11:51:57;100880.47;;;11.51;100.00
45541;BME280;31265;49.680;8.608;2024-02-21T11:54:27;100871.41;;;11.50;100.00
45541;BME280;31265;49.680;8.608;2024-02-21T11:56:55;100877.50;;;11.49;100.00
45541;BME280;31265;49.680;8.608;2024-02-21T11:59:23;100856.75;;;11.42;100.00
45541;BME280;31265;49.680;8.608;2024-02-21T12:01:52;100862.88;;;11.63;100.00
45541;BME280;31265;49.680;8.608;2024-02-21T12:04:23;100853.75;;;12.01;100.00
45541;BME280;31265;49.680;8.608;2024-02-21T12:06:55;100858.06;;;11.87;100.00
45541;BME280;31265;49.680;8.608;2024-02-21T12:09:24;100843.03;;;11.75;100.00
45541;BME280;31265;49.680;8.608;2024-02-21T12:11:59;100838.53;;;12.10;100.00
45541;BME280;31265;49.680;8.608;2024-02-21T12:14:28;100835.63;;;11.70;100.00
45541;BME280;31265;49.680;8.608;2024-02-21T12:16:58;100829.88;;;11.68;100.00
45541;BME280;31265;49.680;8.608;2024-02-21T12:19:30;100824.50;;;11.77;100.00
45541;BME280;31265;49.680;8.608;2024-02-21T12:21:58;100819.28;;;12.04;100.00
45541;BME280;31265;49.680;8.608;2024-02-21T12:24:28;100805.53;;;12.07;100.00
45541;BME280;31265;49.680;8.608;2024-02-21T12:26:56;100807.25;;;11.79;100.00
45541;BME280;31265;49.680;8.608;2024-02-21T12:29:25;100797.41;;;11.93;100.00
45541;BME280;31265;49.680;8.608;2024-02-21T12:31:54;100787.41;;;11.90;100.00
45541;BME280;31265;49.680;8.608;2024-02-21T12:34:23;100794.06;;;12.02;100.00
45541;BME280;31265;49.680;8.608;2024-02-21T12:36:56;100784.69;;;11.44;100.00
45541;BME280;31265;49.680;8.608;2024-02-21T12:39:24;100780.47;;;11.28;100.00
45541;BME280;31265;49.680;8.608;2024-02-21T12:41:54;100763.91;;;11.68;100.00
45541;BME280;31265;49.680;8.608;2024-02-21T12:44:23;100759.97;;;11.94;100.00
45541;BME280;31265;49.680;8.608;2024-02-21T12:46:52;100757.59;;;11.75;100.00
45541;BME280;31265;49.680;8.608;2024-02-21T12:49:22;100752.56;;;11.81;100.00
45541;BME280;31265;49.680;8.608;2024-02-21T12:51:51;100746.31;;;11.66;100.00
45541;BME280;31265;49.680;8.608;2024-02-21T12:54:21;100737.44;;;11.59;100.00
45541;BME280;31265;49.680;8.608;2024-02-21T12:56:50;100742.50;;;12.01;100.00
45541;BME280;31265;49.680;8.608;2024-02-21T12:59:18;100725.13;;;11.86;100.00
45541;BME280;31265;49.680;8.608;2024-02-21T13:01:46;100725.53;;;11.67;100.00